createdAt,value
2022-11-12T00:01:13.546Z,11.90
2022-11-12T00:03:42.416Z,12.57
2022-11-12T00:06:10.254Z,11.60
2022-11-12T00:08:38.072Z,12.50
2022-11-12T00:11:06.179Z,12.00
2022-11-12T00:13:34.013Z,12.30
2022-11-12T00:16:01.951Z,12.50
2022-11-12T00:18:29.986Z,11.93
2022-11-12T00:20:57.789Z,12.83
2022-11-12T00:23:25.584Z,11.70
2022-11-12T00:26:00.645Z,12.40
2022-11-12T00:28:32.224Z,13.50
2022-11-12T00:31:09.000Z,12.67
2022-11-12T00:33:40.799Z,12.37
2022-11-12T00:36:09.197Z,12.90
2022-11-12T00:38:37.001Z,12.10
2022-11-12T00:41:04.867Z,14.17
2022-11-12T00:43:32.609Z,12.23
2022-11-12T00:46:00.338Z,12.87
2022-11-12T00:48:28.423Z,12.27
2022-11-12T00:51:04.031Z,12.40
2022-11-12T00:53:31.942Z,12.33
2022-11-12T00:56:04.464Z,12.30
2022-11-12T00:58:33.690Z,12.13
2022-11-12T01:01:14.846Z,13.43
2022-11-12T01:03:42.992Z,12.37
2022-11-12T01:06:16.020Z,13.07
2022-11-12T01:08:44.085Z,12.17
2022-11-12T01:11:13.493Z,12.50
2022-11-12T01:13:44.514Z,13.07
2022-11-12T01:16:17.655Z,13.67
2022-11-12T01:18:45.616Z,12.83
2022-11-12T01:21:13.775Z,13.10
2022-11-12T01:23:42.602Z,12.57
2022-11-12T01:26:12.402Z,13.33
2022-11-12T01:28:40.181Z,13.20
2022-11-12T01:31:14.852Z,12.43
2022-11-12T01:33:43.086Z,13.53
2022-11-12T01:36:11.479Z,13.47
2022-11-12T01:38:39.704Z,13.23
2022-11-12T01:41:07.776Z,12.73
2022-11-12T01:43:35.790Z,14.70
2022-11-12T01:46:05.273Z,12.80
2022-11-12T01:48:39.292Z,11.87
2022-11-12T01:51:07.183Z,11.10
2022-11-12T01:53:41.757Z,11.70
2022-11-12T01:56:09.610Z,12.43
2022-11-12T01:58:37.527Z,12.07
2022-11-12T02:01:05.525Z,11.70
2022-11-12T02:03:33.923Z,12.57
2022-11-12T02:06:09.023Z,11.97
2022-11-12T02:08:36.840Z,12.37
2022-11-12T02:11:18.752Z,11.40
2022-11-12T02:13:59.098Z,10.37
2022-11-12T02:16:48.698Z,11.63
2022-11-12T02:19:17.103Z,11.50
2022-11-12T02:21:45.240Z,10.80
2022-11-12T02:24:12.890Z,11.67
2022-11-12T02:26:44.391Z,11.20
2022-11-12T02:29:12.296Z,12.20
2022-11-12T02:31:40.169Z,12.00
2022-11-12T02:34:07.995Z,12.27
2022-11-12T02:36:35.731Z,12.77
2022-11-12T02:39:03.617Z,12.30
2022-11-12T02:41:31.531Z,12.53
2022-11-12T02:43:59.298Z,12.17
2022-11-12T02:46:27.130Z,12.40
2022-11-12T02:48:55.017Z,12.57
2022-11-12T02:51:22.824Z,13.00
2022-11-12T02:53:50.587Z,12.57
2022-11-12T02:56:18.398Z,12.53
2022-11-12T02:58:46.175Z,13.07
2022-11-12T03:01:14.000Z,13.00
2022-11-12T03:03:41.872Z,13.17
2022-11-12T03:06:09.682Z,13.97
2022-11-12T03:08:37.500Z,11.90
2022-11-12T03:11:09.863Z,11.93
2022-11-12T03:13:37.677Z,11.80
2022-11-12T03:16:05.753Z,12.73
2022-11-12T03:18:33.811Z,12.60
2022-11-12T03:21:01.580Z,11.90
2022-11-12T03:23:29.394Z,12.17
2022-11-12T03:25:57.295Z,11.93
2022-11-12T03:28:25.445Z,13.87
2022-11-12T03:30:53.596Z,12.57
2022-11-12T03:33:21.416Z,13.00
2022-11-12T03:35:49.200Z,13.33
2022-11-12T03:38:17.041Z,12.50
2022-11-12T03:40:44.881Z,13.03
2022-11-12T03:43:12.666Z,14.27
2022-11-12T03:45:40.553Z,14.63
2022-11-12T03:48:08.439Z,14.27
2022-11-12T03:50:36.299Z,13.70
2022-11-12T03:53:04.345Z,12.60
2022-11-12T03:55:32.449Z,12.10
2022-11-12T03:58:00.488Z,13.87
2022-11-12T04:00:29.086Z,12.33
2022-11-12T04:02:57.239Z,13.33
2022-11-12T04:05:43.695Z,12.70
2022-11-12T04:08:33.540Z,13.40
2022-11-12T04:11:01.394Z,13.30
2022-11-12T04:13:29.254Z,12.67
2022-11-12T04:16:19.687Z,13.37
2022-11-12T04:19:07.045Z,12.93
2022-11-12T04:21:53.186Z,13.17
2022-11-12T04:24:47.074Z,13.80
2022-11-12T04:27:16.069Z,12.73
2022-11-12T04:30:02.992Z,13.40
2022-11-12T04:32:31.414Z,13.70
2022-11-12T04:34:59.428Z,13.63
2022-11-12T04:37:29.183Z,12.93
2022-11-12T04:39:57.007Z,14.00
2022-11-12T04:42:43.278Z,12.93
2022-11-12T04:45:11.590Z,13.67
2022-11-12T04:47:40.695Z,13.97
2022-11-12T04:50:10.414Z,13.17
2022-11-12T04:52:38.234Z,13.43
2022-11-12T04:55:06.450Z,14.57
2022-11-12T04:57:34.365Z,14.00
2022-11-12T05:00:02.171Z,13.60
2022-11-12T05:02:30.033Z,13.40
2022-11-12T05:04:58.046Z,13.43
2022-11-12T05:07:25.849Z,13.73
2022-11-12T05:09:53.780Z,13.23
2022-11-12T05:12:21.554Z,13.70
2022-11-12T05:14:49.367Z,13.90
2022-11-12T05:17:17.151Z,12.63
2022-11-12T05:19:45.020Z,13.43
2022-11-12T05:22:33.290Z,12.23
2022-11-12T05:25:00.900Z,12.70
2022-11-12T05:27:29.088Z,12.33
2022-11-12T05:29:56.858Z,13.73
2022-11-12T05:32:24.827Z,13.83
2022-11-12T05:34:52.600Z,13.57
2022-11-12T05:37:20.437Z,13.67
2022-11-12T05:39:48.258Z,12.93
2022-11-12T05:42:16.038Z,13.23
2022-11-12T05:44:43.985Z,14.03
2022-11-12T05:47:11.750Z,13.00
2022-11-12T05:49:39.548Z,13.57
2022-11-12T05:52:07.427Z,13.40
2022-11-12T05:54:35.226Z,13.37
2022-11-12T05:57:02.933Z,13.10
2022-11-12T05:59:30.689Z,14.27
2022-11-12T06:01:58.418Z,13.33
2022-11-12T06:04:27.413Z,14.10
2022-11-12T06:06:55.218Z,14.13
2022-11-12T06:09:23.047Z,15.37
2022-11-12T06:11:51.210Z,14.33
2022-11-12T06:14:19.101Z,15.30
2022-11-12T06:16:46.914Z,13.63
2022-11-12T06:19:14.734Z,12.93
2022-11-12T06:21:42.688Z,13.47
2022-11-12T06:24:10.756Z,14.00
2022-11-12T06:26:39.156Z,13.03
2022-11-12T06:29:07.069Z,12.80
2022-11-12T06:31:34.928Z,13.30
2022-11-12T06:34:04.336Z,13.13
2022-11-12T06:36:32.358Z,11.83
2022-11-12T06:39:00.215Z,11.57
2022-11-12T06:41:27.969Z,12.57
2022-11-12T06:43:55.865Z,13.03
2022-11-12T06:46:23.674Z,12.70
2022-11-12T06:48:51.517Z,13.00
2022-11-12T06:51:20.510Z,12.67
2022-11-12T06:53:48.481Z,12.50
2022-11-12T06:56:16.533Z,12.13
2022-11-12T06:58:44.574Z,12.90
2022-11-12T07:01:14.222Z,13.47
2022-11-12T07:03:43.000Z,13.03
2022-11-12T07:06:15.288Z,14.70
2022-11-12T07:08:43.418Z,12.93
2022-11-12T07:11:11.488Z,12.20
2022-11-12T07:13:39.369Z,13.57
2022-11-12T07:16:08.902Z,12.60
2022-11-12T07:18:36.785Z,14.17
2022-11-12T07:21:14.615Z,12.87
2022-11-12T07:23:42.438Z,12.90
2022-11-12T07:26:21.624Z,12.93
2022-11-12T07:28:51.488Z,12.33
2022-11-12T07:31:20.035Z,12.40
2022-11-12T07:33:50.039Z,12.60
2022-11-12T07:36:19.474Z,13.10
2022-11-12T07:38:47.522Z,12.23
2022-11-12T07:41:15.942Z,12.87
2022-11-12T07:43:45.076Z,12.10
2022-11-12T07:46:17.721Z,12.17
2022-11-12T07:48:46.191Z,12.33
2022-11-12T07:51:28.289Z,12.53
2022-11-12T07:53:59.475Z,12.93
2022-11-12T07:56:28.225Z,12.63
2022-11-12T07:58:56.126Z,13.07
2022-11-12T08:01:37.875Z,12.03
2022-11-12T08:04:07.225Z,11.93
2022-11-12T08:06:35.463Z,12.60
2022-11-12T08:09:05.874Z,11.97
2022-11-12T08:11:33.886Z,11.63
2022-11-12T08:14:02.046Z,11.17
2022-11-12T08:16:29.963Z,12.23
2022-11-12T08:18:57.837Z,11.67
2022-11-12T08:21:25.640Z,11.93
2022-11-12T08:23:53.715Z,12.83
2022-11-12T08:26:21.627Z,11.87
2022-11-12T08:28:49.602Z,11.73
2022-11-12T08:31:19.331Z,11.23
2022-11-12T08:33:47.252Z,13.53
2022-11-12T08:36:16.166Z,9.57
2022-11-12T08:38:44.293Z,9.90
2022-11-12T08:41:14.056Z,9.77
2022-11-12T08:43:42.431Z,9.20
2022-11-12T08:46:10.250Z,7.87
2022-11-12T08:48:38.305Z,7.27
2022-11-12T08:51:06.501Z,9.27
2022-11-12T08:53:34.330Z,8.40
2022-11-12T08:56:02.160Z,8.17
2022-11-12T08:58:30.393Z,7.60
2022-11-12T09:00:58.649Z,8.50
2022-11-12T09:03:27.025Z,9.13
2022-11-12T09:05:54.966Z,8.90
2022-11-12T09:08:24.685Z,9.33
2022-11-12T09:10:53.149Z,9.03
2022-11-12T09:13:21.241Z,9.93
2022-11-12T09:15:49.249Z,9.23
2022-11-12T09:18:18.345Z,7.87
2022-11-12T09:20:46.640Z,8.53
2022-11-12T09:23:17.348Z,8.90
2022-11-12T09:25:45.178Z,9.40
2022-11-12T09:28:14.897Z,8.43
2022-11-12T09:30:47.901Z,9.10
2022-11-12T09:33:16.412Z,8.67
2022-11-12T09:35:44.550Z,8.43
2022-11-12T09:38:12.556Z,8.13
2022-11-12T09:40:52.529Z,8.17
2022-11-12T09:43:27.029Z,9.03
2022-11-12T09:46:21.513Z,7.73
2022-11-12T09:48:49.430Z,8.47
2022-11-12T09:51:27.200Z,8.27
2022-11-12T09:54:24.088Z,8.77
2022-11-12T09:56:52.168Z,8.27
2022-11-12T09:59:20.056Z,8.30
2022-11-12T10:02:01.485Z,8.63
2022-11-12T10:04:58.681Z,8.13
2022-11-12T10:07:44.990Z,8.40
2022-11-12T10:10:16.457Z,8.43
2022-11-12T10:13:08.711Z,8.67
2022-11-12T10:16:17.195Z,8.80
2022-11-12T10:19:10.760Z,8.47
2022-11-12T10:21:41.509Z,8.00
2022-11-12T10:24:10.121Z,8.03
2022-11-12T10:26:39.608Z,9.00
2022-11-12T10:29:23.757Z,8.97
2022-11-12T10:31:51.711Z,7.70
2022-11-12T10:34:22.040Z,8.93
2022-11-12T10:36:55.584Z,7.77
2022-11-12T10:39:40.706Z,7.87
2022-11-12T10:42:12.667Z,8.57
2022-11-12T10:44:41.291Z,9.13
2022-11-12T10:47:31.902Z,9.13
2022-11-12T10:50:06.421Z,8.23
2022-11-12T10:52:34.467Z,8.07
2022-11-12T10:55:26.017Z,7.90
2022-11-12T10:58:12.804Z,8.70
2022-11-12T11:01:00.466Z,8.30
2022-11-12T11:03:30.513Z,7.73
2022-11-12T11:06:00.283Z,7.03
2022-11-12T11:08:51.646Z,7.50
2022-11-12T11:11:27.673Z,7.70
2022-11-12T11:14:10.453Z,8.50
2022-11-12T11:16:50.947Z,8.77
2022-11-12T11:19:19.131Z,8.40
2022-11-12T11:21:50.964Z,8.73
2022-11-12T11:24:57.625Z,9.33
2022-11-12T11:27:44.984Z,8.17
2022-11-12T11:30:17.153Z,8.13
2022-11-12T11:33:02.631Z,7.83
2022-11-12T11:36:08.383Z,8.40
2022-11-12T11:38:46.506Z,8.67
2022-11-12T11:42:00.587Z,9.30
2022-11-12T11:44:43.929Z,9.03
2022-11-12T11:47:57.693Z,8.33
2022-11-12T11:51:02.341Z,9.50
2022-11-12T11:53:40.382Z,9.00
2022-11-12T11:56:16.635Z,9.20
2022-11-12T11:58:44.668Z,10.37
2022-11-12T12:01:24.966Z,9.40
2022-11-12T12:04:07.075Z,10.00
2022-11-12T12:06:47.532Z,9.97
2022-11-12T12:09:40.040Z,10.17
2022-11-12T12:12:21.256Z,9.90
2022-11-12T12:15:14.540Z,9.07
2022-11-12T12:18:03.149Z,10.17
2022-11-12T12:20:41.338Z,9.77
2022-11-12T12:23:23.528Z,9.43
2022-11-12T12:25:54.915Z,10.30
2022-11-12T12:28:42.379Z,9.33
2022-11-12T12:31:18.184Z,9.47
2022-11-12T12:33:52.688Z,8.60
2022-11-12T12:36:40.640Z,8.53
2022-11-12T12:39:28.654Z,9.20
2022-11-12T12:42:06.104Z,9.43
2022-11-12T12:45:01.755Z,9.07
2022-11-12T12:47:30.740Z,9.20
2022-11-12T12:49:59.191Z,9.00
2022-11-12T12:52:28.492Z,9.77
2022-11-12T12:54:57.565Z,9.40
2022-11-12T12:57:36.864Z,8.60
2022-11-12T13:00:27.918Z,8.97
2022-11-12T13:02:55.999Z,9.03
2022-11-12T13:05:33.719Z,9.00
2022-11-12T13:08:07.376Z,8.87
2022-11-12T13:10:46.072Z,8.43
2022-11-12T13:13:20.341Z,9.60
2022-11-12T13:15:55.181Z,9.20
2022-11-12T13:18:41.964Z,9.00
2022-11-12T13:21:22.600Z,9.33
2022-11-12T13:24:12.356Z,9.77
2022-11-12T13:26:54.571Z,8.77
2022-11-12T13:29:28.949Z,8.00
2022-11-12T13:32:31.282Z,7.90
2022-11-12T13:35:18.351Z,7.63
2022-11-12T13:37:56.249Z,7.60
2022-11-12T13:40:50.935Z,9.13
2022-11-12T13:43:34.693Z,8.27
2022-11-12T13:46:08.642Z,7.63
2022-11-12T13:48:50.037Z,8.03
2022-11-12T13:51:26.923Z,7.20
2022-11-12T13:53:55.292Z,7.30
2022-11-12T13:56:35.083Z,7.50
2022-11-12T13:59:15.251Z,7.63
2022-11-12T14:01:43.615Z,6.83
2022-11-12T14:04:15.865Z,6.57
2022-11-12T14:07:08.474Z,7.50
2022-11-12T14:10:00.680Z,6.30
2022-11-12T14:13:13.722Z,6.70
2022-11-12T14:15:48.027Z,6.37
2022-11-12T14:18:20.853Z,6.27
2022-11-12T14:20:49.071Z,6.80
2022-11-12T14:23:24.138Z,6.47
2022-11-12T14:25:55.092Z,6.70
2022-11-12T14:28:28.147Z,5.80
2022-11-12T14:30:56.979Z,5.90
2022-11-12T14:33:28.229Z,6.57
2022-11-12T14:36:06.797Z,6.40
2022-11-12T14:38:39.088Z,6.63
2022-11-12T14:41:18.403Z,5.60
2022-11-12T14:44:07.446Z,5.53
2022-11-12T14:46:51.579Z,5.80
2022-11-12T14:49:43.876Z,6.00
2022-11-12T14:52:21.301Z,6.43
2022-11-12T14:54:58.470Z,5.87
2022-11-12T14:57:30.462Z,6.13
2022-11-12T14:59:58.759Z,6.63
2022-11-12T15:02:57.817Z,5.63
2022-11-12T15:05:22.179Z,6.27
2022-11-12T15:07:58.886Z,5.23
2022-11-12T15:10:39.736Z,5.17
2022-11-12T15:13:27.356Z,6.03
2022-11-12T15:16:08.768Z,5.30
2022-11-12T15:18:37.067Z,5.07
2022-11-12T15:21:14.061Z,5.73
2022-11-12T15:23:50.172Z,5.13
2022-11-12T15:26:37.952Z,5.73
2022-11-12T15:29:11.801Z,5.30
2022-11-12T15:31:47.918Z,5.93
2022-11-12T15:34:41.093Z,5.37
2022-11-12T15:37:21.733Z,6.23
2022-11-12T15:39:54.020Z,4.90
2022-11-12T15:42:24.846Z,5.63
2022-11-12T15:44:53.279Z,6.10
2022-11-12T15:47:22.692Z,5.93
2022-11-12T15:49:54.807Z,6.10
2022-11-12T15:52:23.193Z,6.77
2022-11-12T15:54:51.239Z,7.00
2022-11-12T15:57:32.802Z,6.10
2022-11-12T16:00:08.481Z,6.43
2022-11-12T16:02:37.135Z,6.70
2022-11-12T16:05:05.229Z,6.37
2022-11-12T16:07:33.310Z,6.07
2022-11-12T16:10:01.392Z,6.40
2022-11-12T16:12:29.467Z,6.23
2022-11-12T16:14:57.837Z,6.63
2022-11-12T16:17:26.098Z,6.37
2022-11-12T16:19:54.131Z,6.07
2022-11-12T16:22:21.934Z,7.13
2022-11-12T16:24:49.787Z,6.23
2022-11-12T16:27:17.623Z,6.77
2022-11-12T16:29:45.418Z,7.03
2022-11-12T16:32:15.346Z,6.17
2022-11-12T16:34:43.198Z,6.33
2022-11-12T16:37:14.367Z,6.57
2022-11-12T16:39:42.263Z,6.77
2022-11-12T16:42:13.356Z,6.33
2022-11-12T16:44:41.313Z,6.93
2022-11-12T16:47:11.322Z,6.30
2022-11-12T16:49:39.482Z,6.33
2022-11-12T16:52:09.376Z,6.97
2022-11-12T16:54:37.314Z,6.50
2022-11-12T16:57:05.413Z,7.17
2022-11-12T16:59:33.433Z,6.70
2022-11-12T17:02:01.444Z,7.17
2022-11-12T17:04:29.321Z,7.23
2022-11-12T17:06:59.928Z,7.03
2022-11-12T17:09:28.835Z,7.60
2022-11-12T17:11:56.878Z,7.73
2022-11-12T17:14:28.303Z,7.87
2022-11-12T17:16:56.726Z,8.77
2022-11-12T17:19:24.734Z,8.40
2022-11-12T17:21:52.852Z,8.33
2022-11-12T17:24:21.101Z,8.03
2022-11-12T17:26:49.040Z,7.90
2022-11-12T17:29:17.305Z,8.53
2022-11-12T17:31:49.576Z,7.50
2022-11-12T17:34:17.542Z,7.47
2022-11-12T17:36:45.774Z,7.90
2022-11-12T17:39:14.096Z,8.77
2022-11-12T17:41:42.041Z,7.70
2022-11-12T17:44:12.785Z,7.83
2022-11-12T17:46:41.272Z,9.10
2022-11-12T17:49:10.787Z,7.60
2022-11-12T17:51:38.842Z,8.30
2022-11-12T17:54:06.978Z,7.93
2022-11-12T17:56:37.155Z,8.37
2022-11-12T17:59:05.526Z,8.47
2022-11-12T18:01:34.168Z,9.23
2022-11-12T18:04:02.245Z,9.60
2022-11-12T18:06:32.010Z,10.37
2022-11-12T18:09:07.938Z,10.17
2022-11-12T18:11:43.972Z,9.30
2022-11-12T18:14:12.099Z,9.97
2022-11-12T18:16:40.191Z,9.73
2022-11-12T18:19:12.346Z,10.20
2022-11-12T18:21:41.641Z,11.20
2022-11-12T18:24:16.664Z,11.00
2022-11-12T18:26:46.530Z,10.80
2022-11-12T18:29:15.164Z,10.27
2022-11-12T18:31:43.396Z,9.77
2022-11-12T18:34:16.771Z,10.07
2022-11-12T18:36:44.925Z,9.93
2022-11-12T18:39:13.258Z,10.03
2022-11-12T18:41:41.304Z,10.80
2022-11-12T18:44:10.773Z,10.53
2022-11-12T18:46:44.737Z,10.50
2022-11-12T18:49:18.103Z,9.73
2022-11-12T18:51:50.794Z,9.27
2022-11-12T18:54:21.655Z,9.93
2022-11-12T18:57:02.192Z,9.57
2022-11-12T18:59:35.507Z,9.40
2022-11-12T19:02:12.052Z,10.63
2022-11-12T19:04:45.537Z,10.87
2022-11-12T19:07:14.017Z,10.40
2022-11-12T19:09:56.849Z,10.47
2022-11-12T19:12:30.374Z,10.13
2022-11-12T19:15:03.367Z,11.27
2022-11-12T19:17:34.995Z,9.80
2022-11-12T19:20:03.151Z,11.17
2022-11-12T19:22:31.646Z,12.23
2022-11-12T19:24:59.789Z,11.07
2022-11-12T19:27:28.159Z,10.73
2022-11-12T19:30:02.446Z,11.27
2022-11-12T19:32:31.485Z,9.93
2022-11-12T19:35:01.285Z,10.00
2022-11-12T19:37:34.179Z,9.67
2022-11-12T19:40:03.948Z,9.33
2022-11-12T19:42:32.578Z,9.57
2022-11-12T19:45:00.780Z,9.90
2022-11-12T19:47:28.685Z,9.37
2022-11-12T19:49:56.814Z,10.40
2022-11-12T19:52:25.011Z,9.67
2022-11-12T19:54:53.180Z,9.33
2022-11-12T19:57:21.507Z,9.60
2022-11-12T19:59:49.519Z,9.93
2022-11-12T20:02:17.942Z,9.83
2022-11-12T20:04:46.322Z,10.10
2022-11-12T20:07:14.790Z,9.63
2022-11-12T20:09:42.951Z,9.23
2022-11-12T20:12:11.315Z,9.87
2022-11-12T20:14:39.313Z,10.03
2022-11-12T20:17:07.700Z,9.53
2022-11-12T20:19:35.792Z,10.17
2022-11-12T20:22:03.875Z,10.77
2022-11-12T20:24:31.986Z,9.57
2022-11-12T20:26:59.964Z,9.07
2022-11-12T20:29:28.400Z,8.27
2022-11-12T20:31:56.585Z,9.17
2022-11-12T20:34:24.781Z,8.70
2022-11-12T20:36:52.988Z,9.03
2022-11-12T20:39:21.284Z,8.87
2022-11-12T20:41:50.301Z,9.23
2022-11-12T20:44:18.892Z,8.53
2022-11-12T20:46:47.410Z,9.33
2022-11-12T20:49:15.422Z,8.67
2022-11-12T20:51:43.518Z,8.63
2022-11-12T20:54:17.035Z,8.00
2022-11-12T20:56:45.692Z,7.90
2022-11-12T20:59:14.255Z,8.37
2022-11-12T21:01:42.386Z,8.30
2022-11-12T21:04:18.777Z,7.13
2022-11-12T21:06:46.857Z,7.17
2022-11-12T21:09:14.893Z,6.80
2022-11-12T21:11:43.094Z,7.00
2022-11-12T21:14:12.411Z,8.40
2022-11-12T21:16:40.759Z,6.67
2022-11-12T21:19:08.936Z,7.87
2022-11-12T21:21:37.007Z,7.23
2022-11-12T21:24:05.455Z,7.97
2022-11-12T21:26:33.650Z,8.67
2022-11-12T21:29:06.175Z,7.83
2022-11-12T21:31:34.312Z,6.90
2022-11-12T21:34:05.563Z,7.57
2022-11-12T21:36:33.736Z,7.60
2022-11-12T21:39:02.158Z,7.60
2022-11-12T21:41:32.544Z,7.10
2022-11-12T21:44:00.719Z,6.60
2022-11-12T21:46:30.965Z,7.03
2022-11-12T21:49:04.158Z,6.20
2022-11-12T21:51:33.533Z,6.70
2022-11-12T21:54:03.610Z,5.80
2022-11-12T21:56:31.808Z,6.13
2022-11-12T21:59:01.746Z,6.33
2022-11-12T22:01:31.398Z,5.57
2022-11-12T22:04:01.273Z,5.97
2022-11-12T22:06:34.208Z,5.53
2022-11-12T22:09:02.433Z,6.13
2022-11-12T22:11:31.631Z,6.60
2022-11-12T22:13:59.773Z,5.87
2022-11-12T22:16:28.874Z,5.77
2022-11-12T22:18:57.591Z,5.10
2022-11-12T22:21:28.464Z,6.00
2022-11-12T22:23:57.079Z,5.90
2022-11-12T22:26:27.558Z,5.17
2022-11-12T22:28:57.248Z,6.30
2022-11-12T22:31:30.343Z,5.70
2022-11-12T22:34:01.802Z,5.30
2022-11-12T22:36:32.558Z,6.03
2022-11-12T22:39:01.921Z,6.00
2022-11-12T22:41:32.313Z,5.80
2022-11-12T22:44:01.721Z,5.40
2022-11-12T22:46:39.610Z,5.93
2022-11-12T22:49:07.895Z,5.37
2022-11-12T22:51:37.235Z,5.23
2022-11-12T22:54:07.251Z,5.73
2022-11-12T22:56:35.634Z,5.53
2022-11-12T22:59:06.106Z,5.23
2022-11-12T23:01:35.994Z,4.57
2022-11-12T23:04:06.061Z,5.90
2022-11-12T23:06:34.218Z,5.23
2022-11-12T23:09:02.277Z,5.27
2022-11-12T23:11:30.697Z,5.57
2022-11-12T23:13:59.038Z,5.10
2022-11-12T23:16:34.379Z,5.00
2022-11-12T23:19:02.705Z,5.10
2022-11-12T23:21:31.524Z,4.93
2022-11-12T23:24:00.403Z,5.20
2022-11-12T23:26:32.359Z,5.07
2022-11-12T23:29:05.047Z,4.67
2022-11-12T23:31:33.538Z,4.87
2022-11-12T23:34:01.987Z,4.70
2022-11-12T23:36:30.727Z,4.90
2022-11-12T23:38:59.212Z,4.83
2022-11-12T23:41:27.703Z,4.47
2022-11-12T23:43:56.369Z,4.53
2022-11-12T23:46:34.533Z,4.30
2022-11-12T23:49:02.959Z,4.43
2022-11-12T23:51:31.263Z,4.80
2022-11-12T23:54:00.381Z,4.73
2022-11-12T23:56:28.623Z,4.53
2022-11-12T23:58:57.154Z,4.00
